Time;durP1;ratioP1;P1;durP2;ratioP2;P2;SDS_P1;SDS_P2;PMS_P1;PMS_P2;Temp;Humidity;BMP_temperature;BMP_pressure;BME280_temperature;BME280_humidity;BME280_pressure;Samples;Min_cycle;Max_cycle;Signal;HPM_P1;HPM_P2
2024/04/21 00:00:25;;;;;;;4.20;1.23;;;;;;;;;;5439898;26;20354;-67
2024/04/21 00:02:50;;;;;;;4.60;1.20;;;;;;;;;;5437296;26;20233;-68
2024/04/21 00:05:16;;;;;;;8.63;1.27;;;;;;;;;;5441712;26;20229;-69
2024/04/21 00:07:42;;;;;;;6.10;1.10;;;;;;;;;;5440380;26;20234;-68
2024/04/21 00:10:07;;;;;;;5.60;1.30;;;;;;;;;;5438432;26;20237;-68
2024/04/21 00:12:32;;;;;;;6.07;1.70;;;;;;;;;;5435802;26;20280;-67
2024/04/21 00:14:58;;;;;;;5.43;1.50;;;;;;;;;;5410657;26;20249;-68
2024/04/21 00:17:23;;;;;;;9.43;1.40;;;;;;;;;;5446458;26;20600;-68
2024/04/21 00:19:48;;;;;;;4.30;1.10;;;;;;;;;;5415988;26;20256;-68
2024/04/21 00:22:13;;;;;;;7.87;1.30;;;;;;;;;;5416518;26;20275;-68
2024/04/21 00:24:38;;;;;;;10.40;1.47;;;;;;;;;;5434311;26;20372;-69
2024/04/21 00:27:04;;;;;;;3.87;1.43;;;;;;;;;;5433941;26;20238;-68
2024/04/21 00:29:29;;;;;;;3.50;1.13;;;;;;;;;;5435017;26;20285;-68
2024/04/21 00:31:54;;;;;;;5.40;1.43;;;;;;;;;;5409754;26;20265;-67
2024/04/21 00:34:19;;;;;;;7.73;1.40;;;;;;;;;;5436038;26;20280;-68
2024/04/21 00:36:44;;;;;;;3.83;1.37;;;;;;;;;;5436451;26;20593;-69
2024/04/21 00:39:10;;;;;;;6.17;1.30;;;;;;;;;;5442708;26;20322;-69
2024/04/21 00:41:35;;;;;;;4.07;1.13;;;;;;;;;;5434298;26;20242;-69
2024/04/21 00:44:00;;;;;;;3.43;1.10;;;;;;;;;;5431999;26;20237;-68
2024/04/21 00:46:25;;;;;;;3.03;1.27;;;;;;;;;;5434434;26;20237;-69
2024/04/21 00:48:51;;;;;;;3.27;0.90;;;;;;;;;;5437626;26;20230;-68
2024/04/21 00:51:19;;;;;;;4.30;1.20;;;;;;;;;;5407463;26;20324;-69
2024/04/21 00:53:44;;;;;;;4.33;1.13;;;;;;;;;;5439322;26;20233;-68
2024/04/21 00:56:11;;;;;;;6.53;2.40;;;;;;;;;;5408279;26;20421;-69
2024/04/21 00:58:37;;;;;;;3.47;1.10;;;;;;;;;;5434087;26;20233;-69
2024/04/21 01:01:02;;;;;;;5.47;1.53;;;;;;;;;;5444079;26;20410;-69
2024/04/21 01:03:28;;;;;;;4.90;1.77;;;;;;;;;;5447171;26;20293;-69
2024/04/21 01:05:53;;;;;;;11.47;2.73;;;;;;;;;;5440349;26;20317;-69
2024/04/21 01:08:18;;;;;;;8.23;2.20;;;;;;;;;;5440963;26;20280;-69
2024/04/21 01:10:43;;;;;;;4.73;1.50;;;;;;;;;;5436084;26;20849;-68
2024/04/21 01:13:09;;;;;;;10.50;2.07;;;;;;;;;;5442451;26;20623;-69
2024/04/21 01:15:34;;;;;;;9.70;1.10;;;;;;;;;;5436967;26;20241;-69
2024/04/21 01:18:00;;;;;;;2.67;1.00;;;;;;;;;;5410463;26;20295;-68
2024/04/21 01:20:25;;;;;;;7.83;2.40;;;;;;;;;;5437919;26;20692;-68
2024/04/21 01:22:50;;;;;;;7.53;1.30;;;;;;;;;;5438485;26;20284;-68
2024/04/21 01:25:16;;;;;;;5.33;1.13;;;;;;;;;;5438950;26;20410;-69
2024/04/21 01:27:41;;;;;;;9.00;1.47;;;;;;;;;;5417865;26;20569;-69
2024/04/21 01:30:06;;;;;;;4.47;0.90;;;;;;;;;;5441152;26;20616;-68
2024/04/21 01:32:32;;;;;;;6.27;1.47;;;;;;;;;;5435208;26;20657;-68
2024/04/21 01:34:57;;;;;;;5.50;1.07;;;;;;;;;;5434644;26;20389;-69
2024/04/21 01:37:23;;;;;;;5.90;1.20;;;;;;;;;;5440570;26;20641;-69
2024/04/21 01:39:48;;;;;;;6.27;1.20;;;;;;;;;;5441693;26;20284;-68
2024/04/21 01:42:13;;;;;;;1.67;1.10;;;;;;;;;;5439703;26;20226;-68
2024/04/21 01:44:38;;;;;;;4.63;1.23;;;;;;;;;;5438244;26;20238;-69
2024/04/21 01:47:04;;;;;;;5.37;0.93;;;;;;;;;;5446164;26;20292;-70
2024/04/21 01:49:29;;;;;;;3.93;1.10;;;;;;;;;;5446926;26;20347;-69
2024/04/21 01:51:54;;;;;;;5.90;1.30;;;;;;;;;;5435542;26;20268;-69
2024/04/21 01:54:19;;;;;;;7.17;1.33;;;;;;;;;;5411634;26;20268;-69
2024/04/21 01:56:45;;;;;;;3.87;1.27;;;;;;;;;;5451085;26;20233;-68
2024/04/21 01:59:10;;;;;;;6.93;1.40;;;;;;;;;;5446508;26;20230;-69
2024/04/21 02:01:35;;;;;;;8.13;0.97;;;;;;;;;;5448322;26;20276;-68
2024/04/21 02:04:00;;;;;;;10.33;1.30;;;;;;;;;;5443476;26;20234;-69
2024/04/21 02:06:26;;;;;;;3.63;0.90;;;;;;;;;;5412162;26;20722;-68
2024/04/21 02:08:51;;;;;;;5.40;1.37;;;;;;;;;;5435382;26;20239;-68
2024/04/21 02:11:16;;;;;;;6.83;1.33;;;;;;;;;;5438841;26;20312;-69
2024/04/21 02:13:41;;;;;;;3.13;1.23;;;;;;;;;;5418702;26;20237;-69
2024/04/21 02:16:06;;;;;;;7.23;1.13;;;;;;;;;;5416482;26;20587;-67
2024/04/21 02:18:32;;;;;;;4.77;1.40;;;;;;;;;;5443551;26;20276;-68
2024/04/21 02:20:57;;;;;;;5.77;1.10;;;;;;;;;;5445329;26;20229;-69
2024/04/21 02:23:22;;;;;;;5.33;1.23;;;;;;;;;;5441917;26;20315;-69
2024/04/21 02:25:57;;;;;;;3.70;1.20;;;;;;;;;;5443257;26;20280;-68
2024/04/21 02:28:22;;;;;;;4.37;0.97;;;;;;;;;;5439809;26;20276;-69
2024/04/21 02:30:47;;;;;;;4.03;1.33;;;;;;;;;;5439076;26;20230;-68
2024/04/21 02:33:12;;;;;;;2.33;1.00;;;;;;;;;;5443117;26;20277;-67
2024/04/21 02:35:38;;;;;;;1.73;0.83;;;;;;;;;;5445799;26;20729;-68
2024/04/21 02:38:03;;;;;;;4.93;1.10;;;;;;;;;;5446927;26;20230;-69
2024/04/21 02:40:28;;;;;;;6.00;1.57;;;;;;;;;;5445279;26;20235;-68
2024/04/21 02:42:53;;;;;;;4.77;1.00;;;;;;;;;;5446454;26;20250;-68
2024/04/21 02:45:18;;;;;;;2.90;0.90;;;;;;;;;;5444103;26;20234;-68
2024/04/21 02:47:44;;;;;;;4.63;1.80;;;;;;;;;;5435446;26;20783;-69
2024/04/21 02:50:09;;;;;;;3.93;1.30;;;;;;;;;;5444689;26;20241;-68
2024/04/21 02:52:34;;;;;;;6.10;1.83;;;;;;;;;;5444652;26;20288;-69
2024/04/21 02:54:59;;;;;;;8.97;1.67;;;;;;;;;;5445231;26;20288;-68
2024/04/21 02:57:25;;;;;;;4.77;1.87;;;;;;;;;;5451885;26;20368;-68
2024/04/21 02:59:50;;;;;;;7.83;1.40;;;;;;;;;;5446956;26;20721;-69
2024/04/21 03:02:16;;;;;;;4.83;1.73;;;;;;;;;;5446318;26;20280;-69
2024/04/21 03:04:41;;;;;;;8.50;1.60;;;;;;;;;;5442235;26;20647;-69
2024/04/21 03:07:06;;;;;;;9.00;1.50;;;;;;;;;;5440688;26;20331;-69
2024/04/21 03:09:31;;;;;;;8.20;1.40;;;;;;;;;;5444928;26;20632;-70
2024/04/21 03:11:56;;;;;;;5.43;1.30;;;;;;;;;;5455282;26;21399;-69
2024/04/21 03:14:22;;;;;;;6.20;1.43;;;;;;;;;;5413878;26;20261;-68
2024/04/21 03:16:47;;;;;;;5.17;1.50;;;;;;;;;;5445405;26;20249;-69
2024/04/21 03:19:12;;;;;;;3.93;1.10;;;;;;;;;;5445195;26;20670;-69
2024/04/21 03:21:37;;;;;;;2.60;1.10;;;;;;;;;;5447549;26;20389;-69
2024/04/21 03:24:02;;;;;;;2.67;0.70;;;;;;;;;;5444394;26;20280;-69
2024/04/21 03:26:28;;;;;;;2.63;1.10;;;;;;;;;;5396690;26;20269;-70
2024/04/21 03:28:53;;;;;;;3.97;0.70;;;;;;;;;;5447505;26;20342;-71
2024/04/21 03:31:18;;;;;;;4.50;0.80;;;;;;;;;;5416173;26;20233;-71
2024/04/21 03:33:43;;;;;;;3.27;0.83;;;;;;;;;;5446307;26;20230;-71
2024/04/21 03:36:09;;;;;;;2.67;0.70;;;;;;;;;;5446955;26;20281;-70
2024/04/21 03:38:34;;;;;;;4.57;1.50;;;;;;;;;;5445533;26;20310;-70
2024/04/21 03:41:00;;;;;;;6.57;1.10;;;;;;;;;;5445658;26;20234;-71
2024/04/21 03:43:25;;;;;;;2.27;1.40;;;;;;;;;;5434215;26;20350;-71
2024/04/21 03:45:50;;;;;;;1.80;0.80;;;;;;;;;;5446239;26;20230;-70
2024/04/21 03:48:16;;;;;;;4.60;1.40;;;;;;;;;;5415804;26;20297;-71
2024/04/21 03:50:41;;;;;;;2.00;0.70;;;;;;;;;;5443215;26;20245;-70
2024/04/21 03:53:12;;;;;;;6.43;1.17;;;;;;;;;;5447069;26;20233;-70
2024/04/21 03:55:37;;;;;;;2.83;0.87;;;;;;;;;;5415426;26;20280;-70
2024/04/21 03:58:03;;;;;;;2.43;0.90;;;;;;;;;;5445695;26;20238;-71
2024/04/21 04:00:28;;;;;;;6.63;1.30;;;;;;;;;;5445403;26;20284;-70
2024/04/21 04:02:53;;;;;;;1.80;0.97;;;;;;;;;;5442501;26;20648;-70
2024/04/21 04:05:18;;;;;;;3.10;1.10;;;;;;;;;;5445144;26;20280;-71
2024/04/21 04:07:45;;;;;;;3.60;1.00;;;;;;;;;;5447694;26;20292;-71
2024/04/21 04:10:10;;;;;;;5.53;1.03;;;;;;;;;;5446978;26;20234;-70
2024/04/21 04:12:42;;;;;;;5.03;1.37;;;;;;;;;;5448172;26;20745;-70
2024/04/21 04:15:11;;;;;;;1.97;0.83;;;;;;;;;;5413373;26;20668;-70
2024/04/21 04:17:36;;;;;;;3.10;1.30;;;;;;;;;;5443026;26;20280;-70
2024/04/21 04:20:02;;;;;;;3.00;1.00;;;;;;;;;;5436674;26;20230;-71
2024/04/21 04:22:27;;;;;;;2.23;0.70;;;;;;;;;;5426747;26;20231;-70
2024/04/21 04:24:52;;;;;;;3.67;1.13;;;;;;;;;;5433169;26;20234;-70
2024/04/21 04:27:18;;;;;;;3.17;1.40;;;;;;;;;;5436547;26;20297;-71
2024/04/21 04:29:43;;;;;;;4.27;1.53;;;;;;;;;;5415775;26;20766;-71
2024/04/21 04:32:08;;;;;;;4.47;1.13;;;;;;;;;;5439130;26;20264;-70
2024/04/21 04:34:34;;;;;;;3.90;1.07;;;;;;;;;;5441323;26;20249;-70
2024/04/21 04:36:59;;;;;;;5.60;1.73;;;;;;;;;;5441799;26;20276;-71
2024/04/21 04:39:24;;;;;;;2.87;1.20;;;;;;;;;;5439400;26;20245;-70
2024/04/21 04:41:49;;;;;;;5.53;1.40;;;;;;;;;;5430475;26;20230;-70
2024/04/21 04:44:14;;;;;;;3.27;1.23;;;;;;;;;;5432670;26;20289;-70
2024/04/21 04:46:40;;;;;;;8.13;1.13;;;;;;;;;;5437256;26;20290;-70
2024/04/21 04:49:05;;;;;;;4.13;0.90;;;;;;;;;;5437175;26;20741;-70
2024/04/21 04:51:30;;;;;;;8.03;2.03;;;;;;;;;;5436385;26;20226;-70
2024/04/21 04:53:55;;;;;;;3.37;0.80;;;;;;;;;;5427518;26;20275;-70
2024/04/21 04:56:20;;;;;;;4.53;1.50;;;;;;;;;;5436155;26;20668;-71
2024/04/21 04:58:46;;;;;;;4.53;1.17;;;;;;;;;;5426398;26;20242;-70
2024/04/21 05:01:11;;;;;;;6.03;0.93;;;;;;;;;;5442075;26;20280;-70
2024/04/21 05:03:36;;;;;;;4.27;0.90;;;;;;;;;;5432530;26;20246;-70
2024/04/21 05:06:01;;;;;;;9.33;1.37;;;;;;;;;;5439748;26;20264;-70
2024/04/21 05:08:26;;;;;;;2.20;0.77;;;;;;;;;;5445409;26;20234;-70
2024/04/21 05:10:51;;;;;;;7.30;1.50;;;;;;;;;;5442237;26;20280;-70
2024/04/21 05:13:17;;;;;;;4.03;1.13;;;;;;;;;;5442354;26;20631;-70
2024/04/21 05:15:42;;;;;;;2.87;1.23;;;;;;;;;;5441296;26;20237;-70
2024/04/21 05:18:08;;;;;;;1.53;0.73;;;;;;;;;;5446851;26;20234;-70
2024/04/21 05:20:33;;;;;;;7.50;0.90;;;;;;;;;;5414863;26;20234;-70
2024/04/21 05:22:58;;;;;;;11.10;1.37;;;;;;;;;;5441307;26;20285;-72
2024/04/21 05:25:23;;;;;;;3.83;0.80;;;;;;;;;;5437202;26;20816;-70
2024/04/21 05:27:48;;;;;;;1.87;0.67;;;;;;;;;;5434366;26;20234;-70
2024/04/21 05:30:13;;;;;;;4.67;0.90;;;;;;;;;;5447220;26;20237;-70
2024/04/21 05:32:39;;;;;;;2.77;0.57;;;;;;;;;;5425063;26;20342;-70
2024/04/21 05:35:04;;;;;;;5.57;1.00;;;;;;;;;;5448461;26;20229;-71
2024/04/21 05:37:29;;;;;;;0.77;0.57;;;;;;;;;;5446407;26;20685;-70
2024/04/21 05:39:54;;;;;;;0.87;0.60;;;;;;;;;;5438723;26;20226;-70
2024/04/21 05:42:19;;;;;;;0.87;0.50;;;;;;;;;;5434665;26;20280;-70
2024/04/21 05:44:45;;;;;;;1.13;0.73;;;;;;;;;;5443304;26;20229;-70
2024/04/21 05:47:10;;;;;;;3.93;1.20;;;;;;;;;;5414558;26;20284;-70
2024/04/21 05:49:35;;;;;;;1.40;0.60;;;;;;;;;;5442676;26;20243;-70
2024/04/21 05:52:00;;;;;;;1.30;0.73;;;;;;;;;;5443460;26;20233;-70
2024/04/21 05:54:26;;;;;;;1.53;0.67;;;;;;;;;;5447980;26;20233;-70
2024/04/21 05:56:52;;;;;;;2.37;1.07;;;;;;;;;;5437892;26;20361;-70
2024/04/21 05:59:17;;;;;;;0.80;0.70;;;;;;;;;;5435171;26;20245;-70
2024/04/21 06:01:42;;;;;;;3.70;0.90;;;;;;;;;;5437366;26;20237;-70
2024/04/21 06:04:07;;;;;;;2.13;0.60;;;;;;;;;;5412116;26;20242;-70
2024/04/21 06:06:32;;;;;;;0.90;0.60;;;;;;;;;;5430231;26;20289;-70
2024/04/21 06:08:58;;;;;;;0.60;0.50;;;;;;;;;;5431615;26;20238;-70
2024/04/21 06:11:23;;;;;;;0.60;0.50;;;;;;;;;;5418115;26;20318;-70
2024/04/21 06:13:48;;;;;;;1.13;0.60;;;;;;;;;;5444433;26;20230;-70
2024/04/21 06:16:13;;;;;;;5.03;0.77;;;;;;;;;;5431471;26;20239;-71
2024/04/21 06:18:39;;;;;;;0.73;0.70;;;;;;;;;;5441814;26;20783;-71
2024/04/21 06:21:04;;;;;;;1.20;0.83;;;;;;;;;;5431441;26;20250;-71
2024/04/21 06:23:29;;;;;;;3.23;0.90;;;;;;;;;;5435624;26;20238;-71
2024/04/21 06:25:54;;;;;;;0.97;0.77;;;;;;;;;;5434545;26;20343;-71
2024/04/21 06:28:20;;;;;;;1.70;0.80;;;;;;;;;;5412600;26;20441;-71
2024/04/21 06:30:45;;;;;;;1.20;0.90;;;;;;;;;;5414392;26;20241;-71
2024/04/21 06:33:10;;;;;;;2.63;0.93;;;;;;;;;;5433907;26;20733;-70
2024/04/21 06:35:36;;;;;;;0.93;0.60;;;;;;;;;;5435532;26;20342;-70
2024/04/21 06:38:01;;;;;;;2.40;0.63;;;;;;;;;;5441891;26;20237;-71
2024/04/21 06:40:26;;;;;;;2.33;0.70;;;;;;;;;;5449492;26;20225;-71
2024/04/21 06:42:52;;;;;;;1.17;0.73;;;;;;;;;;5438786;26;20241;-70
2024/04/21 06:45:17;;;;;;;1.57;0.80;;;;;;;;;;5439635;26;20242;-71
2024/04/21 06:47:42;;;;;;;1.73;0.73;;;;;;;;;;5432924;26;20821;-70
2024/04/21 06:50:07;;;;;;;2.03;0.97;;;;;;;;;;5439923;26;20724;-70
2024/04/21 06:52:32;;;;;;;1.17;0.80;;;;;;;;;;5436361;26;20234;-70
2024/04/21 06:54:58;;;;;;;1.57;1.30;;;;;;;;;;5433546;26;20282;-71
2024/04/21 06:57:23;;;;;;;0.67;0.60;;;;;;;;;;5439319;26;20284;-71
2024/04/21 06:59:48;;;;;;;0.77;0.70;;;;;;;;;;5437358;26;20705;-71
2024/04/21 07:02:14;;;;;;;1.77;0.90;;;;;;;;;;5438998;26;20284;-71
2024/04/21 07:04:39;;;;;;;3.47;1.10;;;;;;;;;;5434814;26;20273;-71
2024/04/21 07:07:04;;;;;;;0.80;0.70;;;;;;;;;;5443506;26;20284;-71
2024/04/21 07:09:29;;;;;;;3.77;0.80;;;;;;;;;;5444059;26;20265;-71
2024/04/21 07:11:54;;;;;;;3.83;0.83;;;;;;;;;;5441856;26;20246;-71
2024/04/21 07:14:20;;;;;;;0.67;0.50;;;;;;;;;;5438131;26;20226;-71
2024/04/21 07:16:45;;;;;;;3.57;1.07;;;;;;;;;;5444152;26;20242;-70
2024/04/21 07:19:10;;;;;;;6.77;1.07;;;;;;;;;;5444240;26;20276;-70
2024/04/21 07:21:35;;;;;;;6.63;1.43;;;;;;;;;;5435598;26;20241;-70
2024/04/21 07:24:00;;;;;;;2.43;0.97;;;;;;;;;;5439241;26;20376;-71
2024/04/21 07:26:26;;;;;;;2.73;1.07;;;;;;;;;;5413946;26;20242;-70
2024/04/21 07:28:51;;;;;;;3.90;1.40;;;;;;;;;;5435602;26;20225;-72
2024/04/21 07:31:16;;;;;;;3.93;1.40;;;;;;;;;;5443679;26;20241;-70
2024/04/21 07:33:41;;;;;;;3.33;1.20;;;;;;;;;;5443558;26;20234;-70
2024/04/21 07:36:06;;;;;;;2.87;1.23;;;;;;;;;;5438918;26;20268;-70
2024/04/21 07:38:31;;;;;;;4.03;1.43;;;;;;;;;;5438705;26;20234;-70
2024/04/21 07:40:57;;;;;;;4.73;1.70;;;;;;;;;;5437957;26;20272;-70
2024/04/21 07:43:22;;;;;;;3.80;1.67;;;;;;;;;;5438829;26;20249;-70
2024/04/21 07:45:50;;;;;;;4.83;1.90;;;;;;;;;;5435659;26;20684;-70
2024/04/21 07:48:15;;;;;;;4.27;2.23;;;;;;;;;;5443201;26;20354;-70
2024/04/21 07:50:43;;;;;;;3.93;2.40;;;;;;;;;;5436607;26;20238;-70
2024/04/21 07:53:08;;;;;;;8.07;2.40;;;;;;;;;;5438215;26;20264;-71
2024/04/21 07:55:33;;;;;;;4.17;1.93;;;;;;;;;;5437389;26;20230;-70
2024/04/21 07:58:01;;;;;;;7.17;2.70;;;;;;;;;;5440560;26;20233;-70
2024/04/21 08:00:26;;;;;;;7.83;1.97;;;;;;;;;;5441948;26;20280;-69
2024/04/21 08:02:52;;;;;;;2.40;1.83;;;;;;;;;;5436027;26;20646;-69
2024/04/21 08:05:17;;;;;;;5.60;1.80;;;;;;;;;;5435449;26;20669;-70
2024/04/21 08:07:42;;;;;;;3.93;2.17;;;;;;;;;;5413930;26;20237;-69
2024/04/21 08:10:07;;;;;;;6.67;1.87;;;;;;;;;;5441503;26;20280;-69
2024/04/21 08:12:32;;;;;;;6.73;1.87;;;;;;;;;;5438119;26;20242;-70
2024/04/21 08:14:58;;;;;;;7.40;1.97;;;;;;;;;;5438997;26;20226;-70
2024/04/21 08:17:23;;;;;;;2.60;1.97;;;;;;;;;;5449742;26;20566;-70
2024/04/21 08:19:48;;;;;;;2.10;1.30;;;;;;;;;;5440914;26;20269;-70
2024/04/21 08:22:14;;;;;;;6.17;1.47;;;;;;;;;;5444806;26;20229;-70
2024/04/21 08:24:39;;;;;;;3.40;1.37;;;;;;;;;;5444687;26;20326;-70
2024/04/21 08:27:05;;;;;;;2.70;1.43;;;;;;;;;;5450006;26;20222;-70
2024/04/21 08:29:30;;;;;;;7.30;1.47;;;;;;;;;;5445523;26;20273;-70
2024/04/21 08:31:55;;;;;;;3.77;1.30;;;;;;;;;;5450396;26;20230;-70
2024/04/21 08:34:22;;;;;;;6.57;1.37;;;;;;;;;;5441637;26;20346;-70
2024/04/21 08:36:47;;;;;;;7.20;1.23;;;;;;;;;;5450040;26;20276;-70
2024/04/21 08:39:13;;;;;;;5.27;1.33;;;;;;;;;;5449011;26;20234;-71
2024/04/21 08:41:41;;;;;;;5.93;1.20;;;;;;;;;;5413725;26;20237;-70
2024/04/21 08:44:10;;;;;;;4.93;1.40;;;;;;;;;;5445132;26;20222;-71
2024/04/21 08:46:36;;;;;;;5.90;1.20;;;;;;;;;;5447936;26;20358;-70
2024/04/21 08:49:02;;;;;;;2.78;1.25;;;;;;;;;;5448294;26;20238;-70
2024/04/21 08:51:27;;;;;;;4.72;1.33;;;;;;;;;;5449626;26;20222;-70
2024/04/21 08:53:53;;;;;;;5.18;1.02;;;;;;;;;;5446808;26;20623;-70
2024/04/21 08:56:21;;;;;;;1.92;0.93;;;;;;;;;;5449857;26;20280;-70
2024/04/21 08:58:49;;;;;;;4.68;1.08;;;;;;;;;;5440107;26;20276;-70
2024/04/21 09:01:16;;;;;;;2.22;1.35;;;;;;;;;;5403372;26;20238;-71
2024/04/21 09:03:42;;;;;;;6.70;1.00;;;;;;;;;;5439379;26;20333;-70
2024/04/21 09:06:08;;;;;;;3.28;1.02;;;;;;;;;;5441076;26;20249;-71
2024/04/21 09:08:33;;;;;;;2.15;0.77;;;;;;;;;;5448618;26;20233;-71
2024/04/21 09:10:58;;;;;;;7.65;0.95;;;;;;;;;;5448184;26;20677;-68
2024/04/21 09:13:24;;;;;;;4.18;1.02;;;;;;;;;;5441127;26;20214;-69
2024/04/21 09:15:49;;;;;;;6.75;1.20;;;;;;;;;;5449661;26;20238;-68
2024/04/21 09:18:14;;;;;;;4.18;1.00;;;;;;;;;;5445857;26;20245;-69
2024/04/21 09:20:39;;;;;;;4.65;1.58;;;;;;;;;;5445246;26;20705;-71
2024/04/21 09:23:06;;;;;;;2.78;0.90;;;;;;;;;;5437254;26;20737;-69
2024/04/21 09:27:59;;;;;;;3.05;1.08;;;;;;;;;;5410905;26;20789;-71
2024/04/21 09:30:24;;;;;;;3.85;0.75;;;;;;;;;;5397471;26;20238;-71
2024/04/21 09:32:50;;;;;;;6.43;1.35;;;;;;;;;;5411756;26;20234;-70
2024/04/21 09:35:17;;;;;;;3.78;1.00;;;;;;;;;;5415642;26;20235;-69
2024/04/21 09:37:44;;;;;;;5.45;1.40;;;;;;;;;;5413134;26;20279;-70
2024/04/21 09:40:10;;;;;;;4.28;1.05;;;;;;;;;;5408038;26;20298;-70
2024/04/21 09:42:35;;;;;;;5.60;1.30;;;;;;;;;;5409131;26;20424;-69
2024/04/21 09:45:01;;;;;;;2.85;1.05;;;;;;;;;;5412481;26;20301;-70
2024/04/21 09:47:27;;;;;;;6.53;0.68;;;;;;;;;;5412080;26;20239;-71
2024/04/21 09:49:54;;;;;;;3.05;0.90;;;;;;;;;;5402425;26;20227;-70
2024/04/21 09:52:20;;;;;;;4.18;0.85;;;;;;;;;;5403023;26;20350;-70
2024/04/21 09:54:45;;;;;;;5.05;1.00;;;;;;;;;;5413904;26;20313;-69
2024/04/21 09:57:17;;;;;;;1.92;0.70;;;;;;;;;;5415696;26;20234;-70
2024/04/21 09:59:43;;;;;;;3.25;0.80;;;;;;;;;;5407341;26;20842;-70
2024/04/21 10:02:28;;;;;;;4.65;1.55;;;;;;;;;;5413923;26;20235;-70
2024/04/21 10:05:04;;;;;;;2.30;0.75;;;;;;;;;;5405750;26;20242;-70
2024/04/21 10:07:33;;;;;;;3.95;0.80;;;;;;;;;;5415110;26;20311;-70
2024/04/21 10:09:59;;;;;;;3.97;1.13;;;;;;;;;;5414988;26;20235;-70
2024/04/21 10:12:24;;;;;;;1.75;0.80;;;;;;;;;;5414185;26;20648;-70
2024/04/21 10:14:50;;;;;;;3.35;0.57;;;;;;;;;;5415431;26;20286;-69
2024/04/21 10:17:15;;;;;;;2.28;0.70;;;;;;;;;;5410508;26;20285;-70
2024/04/21 10:19:41;;;;;;;2.78;0.80;;;;;;;;;;5407389;26;20579;-70
2024/04/21 10:22:06;;;;;;;5.18;1.77;;;;;;;;;;5407183;26;20270;-70
2024/04/21 10:24:31;;;;;;;2.70;1.00;;;;;;;;;;5401194;26;20715;-69
2024/04/21 10:27:00;;;;;;;7.00;0.98;;;;;;;;;;5415202;26;20715;-70
2024/04/21 10:29:31;;;;;;;1.63;0.70;;;;;;;;;;5414567;26;20227;-71
2024/04/21 10:32:17;;;;;;;2.90;1.10;;;;;;;;;;5413726;26;20753;-70
2024/04/21 10:34:49;;;;;;;1.75;0.65;;;;;;;;;;5387597;26;20412;-70
2024/04/21 10:37:23;;;;;;;2.55;0.75;;;;;;;;;;5413560;26;20239;-71
2024/04/21 10:39:48;;;;;;;2.33;0.88;;;;;;;;;;5406544;26;20226;-70
2024/04/21 10:42:14;;;;;;;3.28;0.80;;;;;;;;;;5412277;26;20281;-70
2024/04/21 10:44:40;;;;;;;4.70;1.00;;;;;;;;;;5411196;26;20226;-69
2024/04/21 10:47:05;;;;;;;5.28;1.23;;;;;;;;;;5412910;26;20796;-71
2024/04/21 10:49:31;;;;;;;3.63;1.00;;;;;;;;;;5411235;26;20327;-70
2024/04/21 10:51:56;;;;;;;2.08;1.42;;;;;;;;;;5416176;26;20361;-70
2024/04/21 10:54:21;;;;;;;1.65;1.02;;;;;;;;;;5412359;26;20266;-70
2024/04/21 10:56:49;;;;;;;4.75;0.80;;;;;;;;;;5414812;26;20635;-70
2024/04/21 10:59:14;;;;;;;3.00;0.85;;;;;;;;;;5410213;26;20257;-69
2024/04/21 11:01:39;;;;;;;2.35;1.00;;;;;;;;;;5415137;26;20674;-69
2024/04/21 11:04:05;;;;;;;2.35;0.80;;;;;;;;;;5413280;26;20234;-71
2024/04/21 11:06:30;;;;;;;4.38;0.90;;;;;;;;;;5414066;26;20320;-70
2024/04/21 11:08:56;;;;;;;2.65;0.93;;;;;;;;;;5415927;26;20609;-70
2024/04/21 11:11:21;;;;;;;3.10;0.90;;;;;;;;;;5410839;26;20330;-70
2024/04/21 11:13:46;;;;;;;1.10;0.77;;;;;;;;;;5409900;26;20227;-69
2024/04/21 11:16:12;;;;;;;2.60;0.82;;;;;;;;;;5406448;26;20240;-70
2024/04/21 11:18:40;;;;;;;0.90;0.80;;;;;;;;;;5411083;26;20286;-70
2024/04/21 11:21:05;;;;;;;1.05;0.77;;;;;;;;;;5410360;26;20590;-70
2024/04/21 11:23:34;;;;;;;2.38;1.02;;;;;;;;;;5412266;26;20289;-70
2024/04/21 11:25:59;;;;;;;2.03;1.10;;;;;;;;;;5400475;26;20250;-70
2024/04/21 11:28:25;;;;;;;1.30;0.90;;;;;;;;;;5401401;26;20238;-71
2024/04/21 11:31:03;;;;;;;1.88;1.00;;;;;;;;;;5415246;26;20362;-70
2024/04/21 11:33:28;;;;;;;2.45;0.70;;;;;;;;;;5401795;26;20285;-71
2024/04/21 11:35:53;;;;;;;0.80;0.80;;;;;;;;;;5400513;26;20637;-71
2024/04/21 11:38:18;;;;;;;1.23;0.65;;;;;;;;;;5399679;26;20238;-70
2024/04/21 11:40:44;;;;;;;1.13;0.88;;;;;;;;;;5408870;26;20234;-70
2024/04/21 11:43:10;;;;;;;1.17;0.77;;;;;;;;;;5411954;26;20347;-71
2024/04/21 11:45:36;;;;;;;2.22;1.60;;;;;;;;;;5411404;26;20745;-70
2024/04/21 11:48:01;;;;;;;0.93;0.60;;;;;;;;;;5410739;26;20350;-69
2024/04/21 11:50:26;;;;;;;2.55;1.02;;;;;;;;;;5411760;26;20234;-70
2024/04/21 11:52:53;;;;;;;1.88;0.88;;;;;;;;;;5409788;26;20286;-69
2024/04/21 11:55:19;;;;;;;1.10;0.70;;;;;;;;;;5405999;26;20282;-70
2024/04/21 11:57:44;;;;;;;1.30;0.90;;;;;;;;;;5412693;26;20320;-70
2024/04/21 12:00:09;;;;;;;0.60;0.60;;;;;;;;;;5408494;26;20746;-70
2024/04/21 12:02:34;;;;;;;3.60;0.95;;;;;;;;;;5412538;26;20226;-70
2024/04/21 12:05:00;;;;;;;2.47;0.63;;;;;;;;;;5411420;26;20639;-70
2024/04/21 12:07:25;;;;;;;2.38;0.95;;;;;;;;;;5412295;26;20738;-70
2024/04/21 12:09:50;;;;;;;0.88;0.63;;;;;;;;;;5405819;26;20742;-70
2024/04/21 12:12:16;;;;;;;1.63;0.95;;;;;;;;;;5409539;26;20289;-69
2024/04/21 12:14:41;;;;;;;1.02;0.90;;;;;;;;;;5401418;26;20230;-70
2024/04/21 12:17:07;;;;;;;1.02;0.90;;;;;;;;;;5398160;26;20324;-70
2024/04/21 12:19:33;;;;;;;0.88;0.82;;;;;;;;;;5398469;26;20272;-70
2024/04/21 12:21:59;;;;;;;1.33;0.98;;;;;;;;;;5398479;26;20750;-70
2024/04/21 12:24:24;;;;;;;2.13;1.20;;;;;;;;;;5396959;26;20235;-70
2024/04/21 12:26:49;;;;;;;1.25;1.00;;;;;;;;;;5399828;26;20254;-70
2024/04/21 12:29:14;;;;;;;1.65;1.00;;;;;;;;;;5398752;26;20249;-70
2024/04/21 12:31:40;;;;;;;1.38;0.88;;;;;;;;;;5397661;26;20277;-70
2024/04/21 12:34:05;;;;;;;1.15;1.05;;;;;;;;;;5397633;26;20234;-70
2024/04/21 12:36:30;;;;;;;3.80;0.90;;;;;;;;;;5396981;26;20251;-70
2024/04/21 12:38:55;;;;;;;1.85;1.00;;;;;;;;;;5399254;26;20239;-70
2024/04/21 12:41:20;;;;;;;3.17;1.13;;;;;;;;;;5398427;26;20286;-70
2024/04/21 12:43:46;;;;;;;1.65;0.90;;;;;;;;;;5395632;26;20739;-70
2024/04/21 12:46:11;;;;;;;2.25;1.10;;;;;;;;;;5398636;26;20769;-69
2024/04/21 12:48:36;;;;;;;1.45;1.10;;;;;;;;;;5396826;26;20321;-70
2024/04/21 12:51:01;;;;;;;1.23;0.80;;;;;;;;;;5399782;26;20247;-70
2024/04/21 12:53:26;;;;;;;1.45;1.02;;;;;;;;;;5396522;26;20332;-70
2024/04/21 12:55:52;;;;;;;1.15;0.85;;;;;;;;;;5399009;26;20236;-70
2024/04/21 12:58:17;;;;;;;1.10;0.90;;;;;;;;;;5398810;26;20783;-70
2024/04/21 13:00:42;;;;;;;1.30;0.95;;;;;;;;;;5392481;26;20231;-69
2024/04/21 13:03:07;;;;;;;1.55;1.30;;;;;;;;;;5400143;26;20294;-70
2024/04/21 13:05:33;;;;;;;1.15;1.00;;;;;;;;;;5397688;26;20316;-71
2024/04/21 13:07:58;;;;;;;1.17;1.05;;;;;;;;;;5401447;26;20339;-70
2024/04/21 13:10:24;;;;;;;0.75;0.50;;;;;;;;;;5398018;26;20242;-70
2024/04/21 13:12:50;;;;;;;1.42;0.80;;;;;;;;;;5393694;26;20292;-70
2024/04/21 13:15:15;;;;;;;0.95;0.80;;;;;;;;;;5397598;26;20291;-70
2024/04/21 13:17:44;;;;;;;2.08;0.80;;;;;;;;;;5399887;26;20615;-71
2024/04/21 13:20:09;;;;;;;4.88;1.80;;;;;;;;;;5394181;26;20268;-71
2024/04/21 13:22:35;;;;;;;1.27;0.70;;;;;;;;;;5400531;26;20234;-70
2024/04/21 13:25:00;;;;;;;1.67;0.80;;;;;;;;;;5399241;26;20733;-70
2024/04/21 13:27:25;;;;;;;1.50;1.20;;;;;;;;;;5406297;26;20657;-70
2024/04/21 13:29:50;;;;;;;2.05;0.98;;;;;;;;;;5403731;26;20277;-70
2024/04/21 13:32:15;;;;;;;1.67;0.75;;;;;;;;;;5404572;26;20239;-69
2024/04/21 13:34:41;;;;;;;1.08;0.88;;;;;;;;;;5403180;26;20284;-70
2024/04/21 13:37:06;;;;;;;1.08;0.80;;;;;;;;;;5423249;26;20282;-70
2024/04/21 13:39:31;;;;;;;1.92;0.90;;;;;;;;;;5422212;26;20227;-70
2024/04/21 13:41:56;;;;;;;1.20;0.68;;;;;;;;;;5423618;26;20312;-70
2024/04/21 13:44:22;;;;;;;1.25;0.80;;;;;;;;;;5412139;26;20324;-70
2024/04/21 13:46:47;;;;;;;1.15;0.88;;;;;;;;;;5416798;26;20646;-70
2024/04/21 13:49:12;;;;;;;1.60;0.90;;;;;;;;;;5422857;26;20305;-70
2024/04/21 13:51:37;;;;;;;2.28;0.90;;;;;;;;;;5402988;26;20792;-70
2024/04/21 13:54:02;;;;;;;1.20;0.88;;;;;;;;;;5399066;26;20227;-70
2024/04/21 13:56:28;;;;;;;3.45;1.30;;;;;;;;;;5399215;26;20786;-70
2024/04/21 13:58:53;;;;;;;3.85;1.25;;;;;;;;;;5402364;26;20273;-71
2024/04/21 14:01:18;;;;;;;1.40;1.02;;;;;;;;;;5401187;26;20764;-70
2024/04/21 14:03:43;;;;;;;1.65;0.85;;;;;;;;;;5400418;26;20648;-69
2024/04/21 14:06:08;;;;;;;1.33;1.02;;;;;;;;;;5401428;26;20819;-70
2024/04/21 14:08:34;;;;;;;3.50;1.17;;;;;;;;;;5397690;26;20281;-70
2024/04/21 14:10:59;;;;;;;0.85;0.70;;;;;;;;;;5402625;26;20407;-71
2024/04/21 14:13:24;;;;;;;1.17;0.82;;;;;;;;;;5403264;26;20296;-70
2024/04/21 14:15:50;;;;;;;1.10;0.80;;;;;;;;;;5408449;26;20365;-70
2024/04/21 14:18:15;;;;;;;1.13;0.63;;;;;;;;;;5412045;26;20281;-70
2024/04/21 14:20:40;;;;;;;1.85;0.98;;;;;;;;;;5428673;26;20306;-70
2024/04/21 14:23:05;;;;;;;1.13;0.80;;;;;;;;;;5416935;26;20581;-70
2024/04/21 14:25:31;;;;;;;5.50;0.70;;;;;;;;;;5415360;26;20231;-70
2024/04/21 14:27:56;;;;;;;4.60;1.30;;;;;;;;;;5417988;26;20297;-70
2024/04/21 14:30:21;;;;;;;2.55;0.90;;;;;;;;;;5412210;26;20239;-70
2024/04/21 14:32:46;;;;;;;1.42;1.00;;;;;;;;;;5414242;26;20281;-70
2024/04/21 14:35:11;;;;;;;1.50;1.00;;;;;;;;;;5410144;26;20238;-70